Yatahey, New Mexico
Current Conditions -  °F | °C
As of 5:53 AM on Monday 22 Dec 2014 (Local Time) from KGUP Reporting Station
Clear Clear  
Wind Chill: 30°   Ceiling: Unl
Heat Index: 34°   Visibility: 10mi
Dew Point: 29°   Wind: 5mph
Humidity: 82%   Direction: 240°WSW
Pressure: 30.01"   Gusts: NA
Location:  35.53°N, 108.74°W
Report Text: KGUP 221253Z AUTO 24004KT 10SM CLR 01/M02 A3001 RMK AO2 SLP151 T00111017
Loading
Personal Weather Stations






























Interactive Weather Map New forecast layout! Learn more

10-Day Weather Forecast

Advertisements
Track Severe Weather on mobile